Time;durP1;ratioP1;P1;durP2;ratioP2;P2;SDS_P1;SDS_P2;PMS_P1;PMS_P2;Temp;Humidity;BMP_temperature;BMP_pressure;BME280_temperature;BME280_humidity;BME280_pressure;Samples;Min_cycle;Max_cycle;Signal;HPM_P1;HPM_P2
2021/12/31 00:02:21;;;;;;;6.82;5.18;;;12.10;99.90;;;;;;5028235;28;20452;-62
2021/12/31 00:04:47;;;;;;;7.18;4.97;;;12.20;99.90;;;;;;5029626;28;20533;-63
2021/12/31 00:07:13;;;;;;;8.75;5.10;;;12.20;99.90;;;;;;5023961;28;20052;-61
2021/12/31 00:09:39;;;;;;;7.15;5.25;;;12.10;99.90;;;;;;5007353;28;20095;-61
2021/12/31 00:12:07;;;;;;;8.10;5.88;;;12.20;99.90;;;;;;5028722;28;20033;-60
2021/12/31 00:14:34;;;;;;;9.82;6.55;;;12.10;99.90;;;;;;5028268;28;20560;-62
2021/12/31 00:17:00;;;;;;;11.60;7.25;;;12.20;99.90;;;;;;5029247;28;20075;-62
2021/12/31 00:19:29;;;;;;;10.65;6.88;;;12.10;99.90;;;;;;5028557;28;20388;-63
2021/12/31 00:21:55;;;;;;;10.48;7.00;;;12.20;99.90;;;;;;5029028;28;20088;-63
2021/12/31 00:24:27;;;;;;;12.43;6.82;;;12.20;99.90;;;;;;5007993;28;20129;-60
2021/12/31 00:26:53;;;;;;;9.55;6.50;;;12.10;99.90;;;;;;5011010;28;20033;-62
2021/12/31 00:29:19;;;;;;;14.02;6.82;;;12.10;99.90;;;;;;5004136;28;20136;-62
2021/12/31 00:31:44;;;;;;;8.98;6.43;;;12.20;99.90;;;;;;5028884;28;20057;-62
2021/12/31 00:34:10;;;;;;;9.40;6.57;;;12.20;99.90;;;;;;5028183;28;20026;-63
2021/12/31 00:36:47;;;;;;;13.18;6.85;;;12.20;99.90;;;;;;5028808;28;20071;-63
2021/12/31 00:39:15;;;;;;;13.15;7.47;;;12.20;99.90;;;;;;5022355;28;20056;-62
2021/12/31 00:41:42;;;;;;;10.10;7.22;;;12.20;99.90;;;;;;5027634;28;20049;-63
2021/12/31 00:44:14;;;;;;;9.75;7.05;;;12.10;99.90;;;;;;5028355;28;20510;-64
2021/12/31 00:46:40;;;;;;;12.33;7.73;;;12.20;99.90;;;;;;5028379;28;20380;-63
2021/12/31 00:49:06;;;;;;;12.90;7.82;;;12.20;99.90;;;;;;5028130;28;20407;-62
2021/12/31 00:51:33;;;;;;;14.18;8.68;;;12.20;99.90;;;;;;5028506;28;20041;-63
2021/12/31 00:53:59;;;;;;;13.20;7.70;;;12.20;99.90;;;;;;5025625;28;20488;-62
2021/12/31 00:56:25;;;;;;;11.25;7.18;;;12.20;99.90;;;;;;5032536;28;20045;-62
2021/12/31 00:58:51;;;;;;;16.88;7.75;;;12.20;99.90;;;;;;5032278;28;20033;-62
2021/12/31 01:01:19;;;;;;;11.77;7.93;;;12.20;99.90;;;;;;5032160;28;20132;-61
2021/12/31 01:03:46;;;;;;;14.30;7.80;;;12.20;99.90;;;;;;5032543;28;20112;-62
2021/12/31 01:06:12;;;;;;;13.27;7.97;;;12.20;99.90;;;;;;5031716;28;20513;-62
2021/12/31 01:08:37;;;;;;;12.68;7.35;;;12.20;99.90;;;;;;5014378;28;20033;-63
2021/12/31 01:11:06;;;;;;;16.30;8.30;;;12.30;99.90;;;;;;5027663;28;20029;-62
2021/12/31 01:13:48;;;;;;;15.15;8.30;;;12.20;99.90;;;;;;5031687;28;20091;-65
2021/12/31 01:16:15;;;;;;;17.60;9.20;;;12.20;99.90;;;;;;5032570;28;20056;-61
2021/12/31 01:21:20;;;;;;;17.48;8.48;;;12.20;99.90;;;;;;5032875;28;20029;-62
2021/12/31 01:23:47;;;;;;;16.83;9.25;;;12.20;99.90;;;;;;5025124;28;20032;-61
2021/12/31 01:26:13;;;;;;;19.63;10.00;;;12.20;99.90;;;;;;5032468;28;20079;-61
2021/12/31 01:28:38;;;;;;;17.45;9.25;;;12.10;99.90;;;;;;5026166;28;20045;-62
2021/12/31 01:31:04;;;;;;;16.33;8.98;;;12.20;99.90;;;;;;5032056;28;20032;-61
2021/12/31 01:33:33;;;;;;;15.30;8.00;;;12.10;99.90;;;;;;5025849;28;20026;-61
2021/12/31 01:35:59;;;;;;;15.93;8.25;;;12.20;99.90;;;;;;5031352;28;20051;-60
2021/12/31 01:38:25;;;;;;;17.95;8.23;;;12.20;99.90;;;;;;5032243;28;20477;-61
2021/12/31 01:40:54;;;;;;;17.45;7.00;;;12.20;99.90;;;;;;5030854;28;20038;-63
2021/12/31 01:43:20;;;;;;;16.13;7.65;;;12.20;99.90;;;;;;5031824;28;20061;-61
2021/12/31 01:45:54;;;;;;;14.68;7.28;;;12.20;99.90;;;;;;5010518;28;20135;-60
2021/12/31 01:48:25;;;;;;;15.35;7.43;;;12.20;99.90;;;;;;5032011;28;20030;-61
2021/12/31 01:50:52;;;;;;;14.73;7.10;;;12.20;99.90;;;;;;5030737;28;20041;-61
2021/12/31 01:53:22;;;;;;;19.00;6.90;;;12.20;99.90;;;;;;5013453;28;20030;-61
2021/12/31 01:55:50;;;;;;;16.92;7.15;;;12.10;99.90;;;;;;5028182;28;20036;-61
2021/12/31 01:58:21;;;;;;;12.02;7.05;;;12.20;99.90;;;;;;5028124;28;20041;-62
2021/12/31 02:00:47;;;;;;;19.48;7.82;;;12.20;99.90;;;;;;5031637;28;20470;-62
2021/12/31 02:03:13;;;;;;;15.95;7.20;;;12.10;99.90;;;;;;5029176;28;20041;-62
2021/12/31 02:05:39;;;;;;;18.55;7.10;;;12.20;99.90;;;;;;5031902;28;20034;-61
2021/12/31 02:08:05;;;;;;;16.08;5.93;;;12.20;99.90;;;;;;5030514;28;20121;-62
2021/12/31 02:10:31;;;;;;;16.08;6.05;;;12.20;99.90;;;;;;5030867;28;20038;-62
2021/12/31 02:12:57;;;;;;;20.92;6.63;;;12.20;99.90;;;;;;5030149;28;20090;-62
2021/12/31 02:15:24;;;;;;;17.15;6.20;;;12.20;99.90;;;;;;5031401;28;20060;-62
2021/12/31 02:17:50;;;;;;;19.13;6.40;;;12.20;99.90;;;;;;5029606;28;20025;-63
2021/12/31 02:20:18;;;;;;;17.67;5.47;;;12.20;99.90;;;;;;5030635;28;20040;-62
2021/12/31 02:22:54;;;;;;;15.65;6.22;;;12.20;99.90;;;;;;5030159;28;20083;-63
2021/12/31 02:25:23;;;;;;;21.13;6.53;;;12.20;99.90;;;;;;5030670;28;20063;-63
2021/12/31 02:27:49;;;;;;;20.58;5.60;;;12.20;99.90;;;;;;5031352;28;20044;-63
2021/12/31 02:30:15;;;;;;;19.13;5.63;;;12.20;99.90;;;;;;5030100;28;20468;-63
2021/12/31 02:32:41;;;;;;;20.88;5.22;;;12.30;99.90;;;;;;5030789;28;20682;-63
2021/12/31 02:35:09;;;;;;;13.73;4.95;;;12.20;99.90;;;;;;5029007;28;20485;-63
2021/12/31 02:37:35;;;;;;;14.68;5.07;;;12.30;99.90;;;;;;5031407;28;20048;-63
2021/12/31 02:40:04;;;;;;;17.02;5.20;;;12.20;99.90;;;;;;5030734;28;20033;-63
2021/12/31 02:42:30;;;;;;;15.48;4.97;;;12.20;99.90;;;;;;5013633;28;20032;-63
2021/12/31 02:44:56;;;;;;;18.73;5.22;;;12.30;99.90;;;;;;5029864;28;20030;-63
2021/12/31 02:47:22;;;;;;;16.75;5.10;;;12.20;99.90;;;;;;5029933;28;20018;-62
2021/12/31 02:49:48;;;;;;;19.50;5.45;;;12.30;99.90;;;;;;5028786;28;20036;-62
2021/12/31 02:52:15;;;;;;;10.68;4.15;;;12.30;99.90;;;;;;5012891;28;20423;-63
2021/12/31 02:54:44;;;;;;;13.40;4.50;;;12.30;99.90;;;;;;5029488;28;20033;-62
2021/12/31 02:57:12;;;;;;;16.00;4.55;;;12.30;99.90;;;;;;5010958;28;20476;-63
2021/12/31 02:59:39;;;;;;;12.25;4.35;;;12.30;99.90;;;;;;5022961;28;20040;-63
2021/12/31 03:02:06;;;;;;;15.88;4.63;;;12.30;99.90;;;;;;5029412;28;20395;-62
2021/12/31 03:04:35;;;;;;;12.75;4.78;;;12.30;99.90;;;;;;5030894;28;20044;-63
2021/12/31 03:07:03;;;;;;;14.60;4.70;;;12.30;99.90;;;;;;5029477;28;20379;-63
2021/12/31 03:09:31;;;;;;;13.93;4.68;;;12.30;99.90;;;;;;5029319;28;20100;-62
2021/12/31 03:11:57;;;;;;;15.88;5.03;;;12.30;99.90;;;;;;5030275;28;20021;-62
2021/12/31 03:14:25;;;;;;;11.65;4.75;;;12.40;99.90;;;;;;5028461;28;20032;-63
2021/12/31 03:16:51;;;;;;;18.70;5.05;;;12.40;99.90;;;;;;5030059;28;20021;-62
2021/12/31 03:19:17;;;;;;;15.02;4.43;;;12.40;99.90;;;;;;5027305;28;20026;-63
2021/12/31 03:21:43;;;;;;;15.20;4.30;;;12.40;99.90;;;;;;5030081;28;20033;-64
2021/12/31 03:24:09;;;;;;;15.07;4.28;;;12.40;99.90;;;;;;5010467;28;20095;-64
2021/12/31 03:26:34;;;;;;;10.90;4.00;;;12.40;99.90;;;;;;5030152;28;20040;-64
2021/12/31 03:29:01;;;;;;;16.30;5.15;;;12.40;99.90;;;;;;5029077;28;20033;-63
2021/12/31 03:31:27;;;;;;;15.82;4.72;;;12.40;99.90;;;;;;5029861;28;20459;-61
2021/12/31 03:33:53;;;;;;;14.23;3.97;;;12.40;99.90;;;;;;5028890;28;20021;-61
2021/12/31 03:36:19;;;;;;;14.43;4.25;;;12.40;99.90;;;;;;5012142;28;20029;-63
2021/12/31 03:38:44;;;;;;;10.88;4.05;;;12.40;99.90;;;;;;5006630;28;20116;-63
2021/12/31 03:41:10;;;;;;;8.98;3.75;;;12.40;99.90;;;;;;5029236;28;20671;-64
2021/12/31 03:43:36;;;;;;;12.82;4.53;;;12.40;99.90;;;;;;5021295;28;20038;-62
2021/12/31 03:46:02;;;;;;;13.10;4.32;;;12.30;99.90;;;;;;5011577;28;20033;-60
2021/12/31 03:48:27;;;;;;;10.15;4.60;;;12.30;99.90;;;;;;5028949;28;20032;-63
2021/12/31 03:50:53;;;;;;;11.15;3.90;;;12.30;99.90;;;;;;5029769;28;20037;-63
2021/12/31 03:53:19;;;;;;;16.20;4.65;;;12.30;99.90;;;;;;5028588;28;20036;-63
2021/12/31 03:55:46;;;;;;;13.38;4.00;;;12.30;99.90;;;;;;5027170;28;20364;-62
2021/12/31 03:58:11;;;;;;;13.32;4.38;;;12.30;99.90;;;;;;5024872;28;20022;-63
2021/12/31 04:00:38;;;;;;;9.05;3.92;;;12.30;99.90;;;;;;5029572;28;20033;-62
2021/12/31 04:03:10;;;;;;;14.63;5.25;;;12.20;99.90;;;;;;5027779;28;20182;-62
2021/12/31 04:05:38;;;;;;;13.95;4.88;;;12.20;99.90;;;;;;5021479;28;20029;-62
2021/12/31 04:08:04;;;;;;;15.05;4.63;;;12.20;99.90;;;;;;5028613;28;20475;-62
2021/12/31 04:10:30;;;;;;;15.00;5.53;;;12.10;99.90;;;;;;5010773;28;20037;-61
2021/12/31 04:12:57;;;;;;;16.08;5.47;;;12.10;99.90;;;;;;4993886;28;20438;-61
2021/12/31 04:15:23;;;;;;;15.20;5.20;;;12.10;99.90;;;;;;5029131;28;20017;-61
2021/12/31 04:17:49;;;;;;;14.02;4.43;;;12.10;99.90;;;;;;5028296;28;20034;-61
2021/12/31 04:20:37;;;;;;;15.77;5.28;;;12.00;99.90;;;;;;5011586;28;20084;-61
2021/12/31 04:23:08;;;;;;;16.85;4.90;;;12.10;99.90;;;;;;5027210;28;20017;-61
2021/12/31 04:25:36;;;;;;;17.40;4.63;;;12.10;99.90;;;;;;5027414;28;20029;-61
2021/12/31 04:28:03;;;;;;;12.88;4.38;;;12.00;99.90;;;;;;5028896;28;20356;-61
2021/12/31 04:30:28;;;;;;;10.38;4.32;;;12.10;99.90;;;;;;5028191;28;20026;-62
2021/12/31 04:32:54;;;;;;;12.55;4.28;;;12.10;99.90;;;;;;5028508;28;20033;-61
2021/12/31 04:35:20;;;;;;;13.88;4.40;;;12.10;99.90;;;;;;5027815;28;20367;-62
2021/12/31 04:37:46;;;;;;;16.42;4.32;;;12.10;99.90;;;;;;5029125;28;20340;-63
2021/12/31 04:40:12;;;;;;;12.52;3.55;;;12.10;99.90;;;;;;5028020;28;20421;-63
2021/12/31 04:42:42;;;;;;;12.55;3.50;;;12.10;99.90;;;;;;5028854;28;20065;-63
2021/12/31 04:45:10;;;;;;;16.40;4.43;;;12.10;99.90;;;;;;5027853;28;20052;-62
2021/12/31 04:47:35;;;;;;;14.38;3.70;;;12.10;99.90;;;;;;5029193;28;20425;-62
2021/12/31 04:50:01;;;;;;;15.10;4.03;;;12.10;99.90;;;;;;5025299;28;20052;-62
2021/12/31 04:52:27;;;;;;;14.73;3.65;;;12.10;99.90;;;;;;4994185;28;20434;-62
2021/12/31 04:54:53;;;;;;;10.75;3.25;;;12.20;99.90;;;;;;5027664;28;20433;-62
2021/12/31 04:57:20;;;;;;;13.32;3.35;;;12.20;99.90;;;;;;5027821;28;20026;-62
2021/12/31 04:59:46;;;;;;;13.23;3.45;;;12.20;99.90;;;;;;5029101;28;20026;-62
2021/12/31 05:02:11;;;;;;;13.32;2.97;;;12.20;99.90;;;;;;5027373;28;20438;-63
2021/12/31 05:04:37;;;;;;;10.82;3.45;;;12.30;99.90;;;;;;5029059;28;20045;-62
2021/12/31 05:07:03;;;;;;;10.43;3.15;;;12.30;99.90;;;;;;5028142;28;21066;-62
2021/12/31 05:09:28;;;;;;;10.45;3.58;;;12.30;99.90;;;;;;5023412;28;20044;-63
2021/12/31 05:11:54;;;;;;;12.93;2.78;;;12.30;99.90;;;;;;5010967;28;20372;-62
2021/12/31 05:14:20;;;;;;;11.02;3.30;;;12.30;99.90;;;;;;5007448;28;20026;-63
2021/12/31 05:16:46;;;;;;;13.48;3.58;;;12.30;99.90;;;;;;5028973;28;20075;-62
2021/12/31 05:19:12;;;;;;;16.42;3.55;;;12.40;99.90;;;;;;5007940;28;20044;-63
2021/12/31 05:21:38;;;;;;;10.52;3.03;;;12.30;99.90;;;;;;5028093;28;20056;-62
2021/12/31 05:24:04;;;;;;;9.77;3.08;;;12.40;99.90;;;;;;5026679;28;20060;-63
2021/12/31 05:26:29;;;;;;;16.83;3.45;;;12.40;99.90;;;;;;5028702;28;20034;-61
2021/12/31 05:28:55;;;;;;;11.57;3.50;;;12.40;99.90;;;;;;5027767;28;20033;-59
2021/12/31 05:31:20;;;;;;;13.05;3.38;;;12.40;99.90;;;;;;5010634;28;20025;-61
2021/12/31 05:33:46;;;;;;;14.65;3.50;;;12.40;99.90;;;;;;5027725;28;20030;-62
2021/12/31 05:36:12;;;;;;;16.27;3.70;;;12.40;99.90;;;;;;4994555;28;20491;-61
2021/12/31 05:38:38;;;;;;;12.10;3.60;;;12.50;99.90;;;;;;5031500;28;20080;-61
2021/12/31 05:41:05;;;;;;;10.63;3.20;;;12.40;99.90;;;;;;5031415;28;20071;-61
2021/12/31 05:43:30;;;;;;;11.52;3.05;;;12.50;99.90;;;;;;5032079;28;20116;-61
2021/12/31 05:45:56;;;;;;;11.50;3.47;;;12.40;99.90;;;;;;5030859;28;20112;-62
2021/12/31 05:48:21;;;;;;;9.68;3.45;;;12.50;99.90;;;;;;5030961;28;20034;-62
2021/12/31 05:50:47;;;;;;;10.73;3.17;;;12.50;99.90;;;;;;5014402;28;20098;-62
2021/12/31 05:53:13;;;;;;;8.38;3.08;;;12.50;99.90;;;;;;5028175;28;20487;-62
2021/12/31 05:55:38;;;;;;;13.32;3.47;;;12.60;99.90;;;;;;5031354;28;20453;-62
2021/12/31 05:58:05;;;;;;;9.95;3.38;;;12.60;99.90;;;;;;5030764;28;20037;-63
2021/12/31 06:00:30;;;;;;;13.88;3.53;;;12.60;99.90;;;;;;5031811;28;20044;-62
2021/12/31 06:02:56;;;;;;;13.63;3.60;;;12.60;99.90;;;;;;5007066;28;20029;-62
2021/12/31 06:05:25;;;;;;;9.45;3.58;;;12.60;99.90;;;;;;5031563;28;20101;-61
2021/12/31 06:07:56;;;;;;;13.35;3.50;;;12.60;99.90;;;;;;5030133;28;20462;-61
2021/12/31 06:10:23;;;;;;;10.40;3.67;;;12.60;99.90;;;;;;5030903;28;20040;-61
2021/12/31 06:12:50;;;;;;;9.30;4.07;;;12.60;99.90;;;;;;5030477;28;20506;-61
2021/12/31 06:15:18;;;;;;;9.60;3.78;;;12.60;99.90;;;;;;5029345;28;20116;-61
2021/12/31 06:17:44;;;;;;;9.35;4.35;;;12.60;99.90;;;;;;5030398;28;20060;-63
2021/12/31 06:20:10;;;;;;;13.70;4.10;;;12.60;99.90;;;;;;5029727;28;20051;-61
2021/12/31 06:22:36;;;;;;;9.05;4.25;;;12.60;99.90;;;;;;5005627;28;20041;-62
2021/12/31 06:25:03;;;;;;;12.45;4.53;;;12.60;99.90;;;;;;5009983;28;20033;-60
2021/12/31 06:27:29;;;;;;;17.92;4.78;;;12.60;99.90;;;;;;5006125;28;20049;-62
2021/12/31 06:29:55;;;;;;;13.05;4.82;;;12.60;99.90;;;;;;5025945;28;20021;-60
2021/12/31 06:32:20;;;;;;;14.00;5.05;;;12.60;99.90;;;;;;5030862;28;20472;-62
2021/12/31 06:34:46;;;;;;;11.27;5.68;;;12.60;99.90;;;;;;5018597;28;20060;-61
2021/12/31 06:37:11;;;;;;;13.07;5.43;;;12.50;99.90;;;;;;5013914;28;20182;-61
2021/12/31 06:39:37;;;;;;;12.10;5.63;;;12.50;99.90;;;;;;5028673;28;20029;-59
2021/12/31 06:42:07;;;;;;;12.23;5.43;;;12.50;99.90;;;;;;5028457;28;20432;-60
2021/12/31 06:44:33;;;;;;;9.05;5.00;;;12.40;99.90;;;;;;5012358;28;20025;-58
2021/12/31 06:46:59;;;;;;;13.60;5.68;;;12.40;99.90;;;;;;5029794;28;20022;-67
2021/12/31 06:49:25;;;;;;;10.98;5.60;;;12.40;99.90;;;;;;5030914;28;20450;-60
2021/12/31 06:51:50;;;;;;;10.75;5.93;;;12.40;99.90;;;;;;5029552;28;20056;-59
2021/12/31 06:54:16;;;;;;;12.57;6.18;;;12.40;99.90;;;;;;5026965;28;20036;-59
2021/12/31 06:56:41;;;;;;;14.32;6.35;;;12.40;99.90;;;;;;5028768;28;20031;-61
2021/12/31 06:59:07;;;;;;;9.60;5.70;;;12.40;99.90;;;;;;5024535;28;20020;-59
2021/12/31 07:01:33;;;;;;;13.00;6.22;;;12.30;99.90;;;;;;5026416;28;20499;-61
2021/12/31 07:03:58;;;;;;;12.07;6.10;;;12.40;99.90;;;;;;5029992;28;20032;-58
2021/12/31 07:06:24;;;;;;;9.98;5.97;;;12.40;99.90;;;;;;5027107;28;20087;-57
2021/12/31 07:08:50;;;;;;;13.20;5.70;;;12.40;99.90;;;;;;5030086;28;20021;-58
2021/12/31 07:11:21;;;;;;;10.60;5.85;;;12.40;99.90;;;;;;5022202;28;20029;-60
2021/12/31 07:13:48;;;;;;;13.60;6.30;;;12.40;99.90;;;;;;5039128;28;20037;-60
2021/12/31 07:16:13;;;;;;;11.00;5.97;;;12.40;99.90;;;;;;5030026;28;20033;-58
2021/12/31 07:18:39;;;;;;;9.88;6.20;;;12.50;99.90;;;;;;5024810;28;20040;-58
2021/12/31 07:21:04;;;;;;;12.57;6.13;;;12.50;99.90;;;;;;5010487;28;20101;-59
2021/12/31 07:23:30;;;;;;;12.80;6.40;;;12.50;99.90;;;;;;5044520;28;20438;-58
2021/12/31 07:25:56;;;;;;;14.02;6.45;;;12.50;99.90;;;;;;5050654;28;20025;-61
2021/12/31 07:28:21;;;;;;;13.40;6.57;;;12.50;99.90;;;;;;5018764;28;20056;-60
2021/12/31 07:30:48;;;;;;;10.90;6.32;;;12.50;99.90;;;;;;5028993;28;20455;-59
2021/12/31 07:33:22;;;;;;;11.23;7.07;;;12.50;99.90;;;;;;5024779;28;20108;-61
2021/12/31 07:35:49;;;;;;;9.40;6.20;;;12.60;99.90;;;;;;5029263;28;20037;-61
2021/12/31 07:38:20;;;;;;;10.43;6.40;;;12.50;99.90;;;;;;5023632;28;20029;-60
2021/12/31 07:40:48;;;;;;;10.95;6.95;;;12.60;99.90;;;;;;5024863;28;20038;-61
2021/12/31 07:43:14;;;;;;;9.23;6.07;;;12.60;99.90;;;;;;5019235;28;20021;-61
2021/12/31 07:45:41;;;;;;;9.90;6.72;;;12.60;99.90;;;;;;5027829;28;20570;-60
2021/12/31 07:48:07;;;;;;;11.07;6.82;;;12.60;99.90;;;;;;5029638;28;20029;-61
2021/12/31 07:50:33;;;;;;;11.52;5.88;;;12.60;99.90;;;;;;5028401;28;20072;-60
2021/12/31 07:52:59;;;;;;;10.15;6.07;;;12.60;99.90;;;;;;5024302;28;20026;-60
2021/12/31 07:55:25;;;;;;;9.05;5.40;;;12.70;99.90;;;;;;5010843;28;20040;-60
2021/12/31 07:57:50;;;;;;;7.68;5.45;;;12.70;99.90;;;;;;5028588;28;20092;-60
2021/12/31 08:00:16;;;;;;;13.60;6.07;;;12.70;99.90;;;;;;5011144;28;20026;-53
2021/12/31 08:02:42;;;;;;;10.40;5.60;;;12.90;99.90;;;;;;5027507;28;20106;-53
2021/12/31 08:05:08;;;;;;;8.48;4.70;;;12.90;99.90;;;;;;5029170;28;20400;-52
2021/12/31 08:07:34;;;;;;;8.18;5.40;;;13.00;99.90;;;;;;5024090;28;20079;-58
2021/12/31 08:09:59;;;;;;;8.52;5.15;;;12.90;99.90;;;;;;5028698;28;20446;-58
2021/12/31 08:12:25;;;;;;;10.43;5.57;;;12.90;99.90;;;;;;5034137;28;20433;-58
2021/12/31 08:14:51;;;;;;;10.35;5.38;;;12.90;99.90;;;;;;5035243;28;20045;-58
2021/12/31 08:17:16;;;;;;;8.48;5.13;;;12.90;99.90;;;;;;5020937;28;20368;-60
2021/12/31 08:19:42;;;;;;;7.82;4.43;;;12.90;99.90;;;;;;5049057;28;20086;-59
2021/12/31 08:22:09;;;;;;;7.32;5.00;;;12.90;99.90;;;;;;5035588;28;20048;-55
2021/12/31 08:24:34;;;;;;;9.48;5.28;;;13.00;99.90;;;;;;5029358;28;20552;-59
2021/12/31 08:27:00;;;;;;;6.65;4.43;;;13.00;99.90;;;;;;5025832;28;20161;-58
2021/12/31 08:29:26;;;;;;;11.23;4.95;;;12.90;99.90;;;;;;5028107;28;20486;-58
2021/12/31 08:31:51;;;;;;;7.63;4.90;;;13.00;99.90;;;;;;5022675;28;20349;-57
2021/12/31 08:34:17;;;;;;;6.65;4.55;;;13.00;99.90;;;;;;5039411;28;20025;-59
2021/12/31 08:36:43;;;;;;;11.57;4.20;;;13.00;99.90;;;;;;5028327;28;20387;-59
2021/12/31 08:39:09;;;;;;;7.70;4.55;;;13.10;99.90;;;;;;5027826;28;20468;-59
2021/12/31 08:41:39;;;;;;;8.57;4.55;;;13.00;99.90;;;;;;5028918;28;20029;-59
2021/12/31 08:44:06;;;;;;;5.57;4.15;;;13.10;99.90;;;;;;5029048;28;20382;-56
2021/12/31 08:46:32;;;;;;;11.25;4.35;;;13.10;99.90;;;;;;5027202;28;20042;-58
2021/12/31 08:48:57;;;;;;;7.28;4.03;;;13.20;99.90;;;;;;5011293;28;20044;-58
2021/12/31 08:51:24;;;;;;;7.38;4.25;;;13.20;99.90;;;;;;5027466;28;20026;-58
2021/12/31 08:53:50;;;;;;;8.75;3.95;;;13.10;99.90;;;;;;5028538;28;20034;-56
2021/12/31 08:56:16;;;;;;;8.80;4.05;;;13.20;99.90;;;;;;5026910;28;20479;-56
2021/12/31 08:58:42;;;;;;;7.72;3.97;;;13.20;99.90;;;;;;5028902;28;20041;-56
2021/12/31 09:01:07;;;;;;;9.02;3.70;;;13.10;99.90;;;;;;5027537;28;20494;-56
2021/12/31 09:03:33;;;;;;;7.95;3.63;;;13.20;99.90;;;;;;5028299;28;20490;-57
2021/12/31 09:05:59;;;;;;;10.05;4.13;;;13.20;99.90;;;;;;5027916;28;20025;-57
2021/12/31 09:08:24;;;;;;;9.38;3.60;;;13.20;99.90;;;;;;5028355;28;20876;-57
2021/12/31 09:10:50;;;;;;;5.63;3.60;;;13.20;99.90;;;;;;5024855;28;20077;-56
2021/12/31 09:13:16;;;;;;;8.90;3.45;;;13.20;99.90;;;;;;5030307;28;20422;-57
2021/12/31 09:15:41;;;;;;;9.45;3.47;;;13.20;99.90;;;;;;5029824;28;20037;-57
2021/12/31 09:18:07;;;;;;;5.35;2.95;;;13.30;99.90;;;;;;5032158;28;20422;-57
2021/12/31 09:20:32;;;;;;;7.45;3.40;;;13.30;99.90;;;;;;5031957;28;20056;-59
2021/12/31 09:22:58;;;;;;;5.78;3.33;;;13.30;99.90;;;;;;5031704;28;20418;-57
2021/12/31 09:25:24;;;;;;;8.70;3.00;;;13.40;99.90;;;;;;5030322;28;20494;-55
2021/12/31 09:27:49;;;;;;;5.63;2.88;;;13.20;99.90;;;;;;5014525;28;20125;-58
2021/12/31 09:30:15;;;;;;;4.93;2.72;;;13.20;99.90;;;;;;5013473;28;20034;-53
2021/12/31 09:32:41;;;;;;;7.75;2.85;;;13.30;99.90;;;;;;5031235;28;20041;-56
2021/12/31 09:35:08;;;;;;;7.65;2.55;;;13.30;99.90;;;;;;5026873;28;20040;-58
2021/12/31 09:37:34;;;;;;;9.73;2.85;;;13.20;99.90;;;;;;5028755;28;20021;-58
2021/12/31 09:40:00;;;;;;;7.88;3.25;;;13.20;99.90;;;;;;5027151;28;20071;-56
2021/12/31 09:42:26;;;;;;;7.53;3.17;;;13.20;99.90;;;;;;5031062;28;20029;-55
2021/12/31 09:44:51;;;;;;;9.63;2.80;;;13.20;99.90;;;;;;5031983;28;20031;-54
2021/12/31 09:47:18;;;;;;;9.50;3.83;;;13.30;99.90;;;;;;5031559;28;20188;-57
2021/12/31 09:49:46;;;;;;;9.43;3.03;;;13.20;99.90;;;;;;5026429;28;20034;-55
2021/12/31 09:52:13;;;;;;;11.18;3.10;;;13.20;99.90;;;;;;5030061;28;20049;-55
2021/12/31 09:54:41;;;;;;;5.50;3.00;;;13.20;99.90;;;;;;5032259;28;20026;-56
2021/12/31 09:57:15;;;;;;;7.47;3.63;;;13.20;99.90;;;;;;5030519;28;20484;-56
2021/12/31 09:59:41;;;;;;;6.40;2.63;;;13.20;99.90;;;;;;5023625;28;20037;-56
2021/12/31 10:02:09;;;;;;;5.90;2.83;;;13.20;99.90;;;;;;5029882;28;20029;-57
2021/12/31 10:04:55;;;;;;;7.13;3.10;;;13.20;99.90;;;;;;5013892;28;20029;-58
2021/12/31 10:07:23;;;;;;;7.18;3.28;;;13.20;99.90;;;;;;5030747;28;20133;-58
2021/12/31 10:10:10;;;;;;;7.25;3.03;;;13.20;99.90;;;;;;5030647;28;20038;-58
2021/12/31 10:12:46;;;;;;;7.28;2.85;;;13.20;99.90;;;;;;5023396;28;20053;-55
2021/12/31 10:15:12;;;;;;;8.23;2.97;;;13.20;99.90;;;;;;5028735;28;20072;-54
2021/12/31 10:17:38;;;;;;;8.65;2.90;;;13.20;99.90;;;;;;5031045;28;20415;-56
2021/12/31 10:20:04;;;;;;;8.43;3.05;;;13.10;99.90;;;;;;5026482;28;20071;-52
2021/12/31 10:22:29;;;;;;;6.72;2.80;;;13.20;99.90;;;;;;5026539;28;20033;-52
2021/12/31 10:24:55;;;;;;;6.63;3.30;;;13.10;99.90;;;;;;5029918;28;20163;-59
2021/12/31 10:27:21;;;;;;;7.57;2.90;;;13.20;99.90;;;;;;5036289;28;20036;-59
2021/12/31 10:30:00;;;;;;;5.10;3.25;;;13.10;99.90;;;;;;5034892;28;20096;-59
2021/12/31 10:32:29;;;;;;;7.13;3.53;;;13.20;99.90;;;;;;5024031;28;20057;-58
2021/12/31 10:35:11;;;;;;;6.05;3.22;;;13.20;99.90;;;;;;5028645;28;20507;-55
2021/12/31 10:37:45;;;;;;;10.38;3.75;;;13.20;99.90;;;;;;5022183;28;20052;-54
2021/12/31 10:40:12;;;;;;;9.05;3.20;;;13.20;99.90;;;;;;5031041;28;20040;-52
2021/12/31 10:42:38;;;;;;;7.60;3.53;;;13.20;99.90;;;;;;5012636;28;20038;-57
2021/12/31 10:45:05;;;;;;;7.57;3.58;;;13.20;99.90;;;;;;5022979;28;20092;-60
2021/12/31 10:47:34;;;;;;;13.00;4.10;;;13.20;99.90;;;;;;5028784;28;20036;-58
2021/12/31 10:50:11;;;;;;;6.80;3.72;;;13.20;99.90;;;;;;5033961;28;20029;-58
2021/12/31 10:52:58;;;;;;;11.70;3.80;;;13.20;99.90;;;;;;5028747;28;20029;-57
2021/12/31 10:55:29;;;;;;;6.88;3.50;;;13.20;99.90;;;;;;5029259;28;20037;-58
2021/12/31 10:58:04;;;;;;;7.50;2.92;;;13.20;99.90;;;;;;5029849;28;21108;-57
2021/12/31 11:00:36;;;;;;;7.20;3.58;;;13.20;99.90;;;;;;5030119;28;20033;-58
2021/12/31 11:03:01;;;;;;;;;;;13.20;99.90;;;;;;5029574;28;20022;-57
2021/12/31 11:05:28;;;;;;;7.28;3.63;;;13.20;99.90;;;;;;5022334;28;20008;-58
2021/12/31 11:07:54;;;;;;;9.32;3.58;;;13.20;99.90;;;;;;5028919;28;20057;-56
2021/12/31 11:10:26;;;;;;;10.27;3.50;;;13.20;99.90;;;;;;5045755;28;20099;-57
2021/12/31 11:12:53;;;;;;;5.20;3.47;;;13.20;99.90;;;;;;5028491;28;20051;-58
2021/12/31 11:15:19;;;;;;;8.07;3.75;;;13.20;99.90;;;;;;5029896;28;20026;-57
2021/12/31 11:17:44;;;;;;;7.22;3.90;;;13.20;99.90;;;;;;5027266;28;20375;-58
2021/12/31 11:20:12;;;;;;;12.13;3.35;;;13.10;99.90;;;;;;5029754;28;20402;-57
2021/12/31 11:22:38;;;;;;;9.35;3.53;;;13.20;99.90;;;;;;5028695;28;20057;-57
2021/12/31 11:25:21;;;;;;;8.93;3.63;;;13.20;99.90;;;;;;5029001;28;20037;-58
2021/12/31 11:27:48;;;;;;;12.88;3.40;;;13.20;99.90;;;;;;5025475;28;20464;-57
2021/12/31 11:30:32;;;;;;;7.85;3.92;;;13.20;99.90;;;;;;5030094;28;20099;-58
2021/12/31 11:32:59;;;;;;;9.15;4.00;;;13.20;99.90;;;;;;5028874;28;20112;-58
2021/12/31 11:35:36;;;;;;;9.18;3.60;;;13.20;99.90;;;;;;5029329;28;20025;-58
2021/12/31 11:38:39;;;;;;;6.95;3.08;;;13.20;99.90;;;;;;5028548;28;20025;-54
2021/12/31 11:41:19;;;;;;;9.75;3.55;;;13.20;99.90;;;;;;5012138;28;20021;-54
2021/12/31 11:44:05;;;;;;;8.30;4.43;;;13.20;99.90;;;;;;5029276;28;20017;-55
2021/12/31 11:46:32;;;;;;;10.35;4.03;;;13.20;99.90;;;;;;5026600;28;20439;-54
2021/12/31 11:48:59;;;;;;;9.73;3.80;;;13.20;99.90;;;;;;5024402;28;20025;-57
2021/12/31 11:51:35;;;;;;;7.80;3.40;;;13.20;99.90;;;;;;5028384;28;20032;-54
2021/12/31 11:54:01;;;;;;;9.18;4.53;;;13.20;99.90;;;;;;5028496;28;20156;-57
2021/12/31 11:56:40;;;;;;;5.35;3.55;;;13.20;99.90;;;;;;5025072;28;20108;-59
2021/12/31 11:59:09;;;;;;;5.97;3.35;;;13.20;99.90;;;;;;5023962;28;20032;-55
2021/12/31 12:01:37;;;;;;;8.90;3.30;;;13.20;99.90;;;;;;5025364;28;20037;-52
2021/12/31 12:04:20;;;;;;;14.02;3.85;;;13.10;99.90;;;;;;5023656;28;21038;-55
2021/12/31 12:07:11;;;;;;;6.65;4.00;;;13.10;99.90;;;;;;5017122;28;20022;-56
2021/12/31 12:09:36;;;;;;;9.55;3.97;;;13.00;99.90;;;;;;5011662;28;20040;-60
2021/12/31 12:12:10;;;;;;;8.77;3.65;;;12.90;99.90;;;;;;5028490;28;20248;-53
2021/12/31 12:14:52;;;;;;;10.68;4.20;;;12.90;99.90;;;;;;5025639;28;20056;-60
2021/12/31 12:17:43;;;;;;;8.20;4.18;;;12.80;99.90;;;;;;5026951;28;20040;-60
2021/12/31 12:20:18;;;;;;;10.95;5.10;;;12.70;99.90;;;;;;5027938;28;20430;-53
2021/12/31 12:22:56;;;;;;;6.38;4.30;;;12.60;99.90;;;;;;5021611;28;20029;-54
2021/12/31 12:25:25;;;;;;;13.52;4.57;;;12.60;99.90;;;;;;5022653;28;20037;-60
2021/12/31 12:28:04;;;;;;;9.32;4.40;;;12.50;99.90;;;;;;5029123;28;20108;-59
2021/12/31 12:30:30;;;;;;;6.47;4.43;;;12.50;99.90;;;;;;5021474;28;20403;-53
2021/12/31 12:35:37;;;;;;;12.68;4.85;;;12.40;99.90;;;;;;5029043;28;20040;-55
2021/12/31 12:38:05;;;;;;;9.75;4.38;;;12.40;99.90;;;;;;5027736;28;20040;-53
2021/12/31 12:40:46;;;;;;;7.22;4.20;;;12.40;99.90;;;;;;5029003;28;20029;-51
2021/12/31 12:43:16;;;;;;;9.35;5.03;;;12.40;99.90;;;;;;5027685;28;20045;-59
2021/12/31 12:45:45;;;;;;;9.73;5.15;;;12.40;99.90;;;;;;5027941;28;20029;-59
2021/12/31 12:48:11;;;;;;;9.60;4.80;;;12.40;99.90;;;;;;5032247;28;20033;-60
2021/12/31 12:50:37;;;;;;;8.93;4.85;;;12.40;99.90;;;;;;5033052;28;20092;-57